This is the latest recevied weather packets stored in our database for station/object KO4ILY. If no packets are shown the sender has not sent any weather packets the latest 10 day(s).
| Time | Temp. | Humidity | Pressure | Rain* | Wind** | Luminosity | Snow |
|---|---|---|---|---|---|---|---|
| 1777775116 | 13.33° C | 57% | 1017.6 hPa | 0 mm | - | 0 W/m² | - |
| 1777773916 | 13.33° C | 56% | 1017.2 hPa | 0 mm | - | 0 W/m² | - |
| 1777770938 | 15° C | 50% | 1016.6 hPa | 0 mm | - | 0 W/m² | - |
| 1777767339 | 16.11° C | 44% | 1015.5 hPa | 0 mm | - | 5 W/m² | - |
| 1777766119 | 16.11° C | 43% | 1015.1 hPa | 0 mm | - | 19 W/m² | - |
| 1777765537 | 16.67° C | 42% | 1015 hPa | 0 mm | - | 22 W/m² | - |
| 1777764917 | 16.67° C | 42% | 1014.8 hPa | 0 mm | - | 24 W/m² | - |
| 1777761317 | 17.78° C | 38% | 1014.7 hPa | 0 mm | - | 155 W/m² | - |
| 1777755916 | 18.89° C | 40% | 1014.4 hPa | 0 mm | - | 497 W/m² | - |
| 1777752317 | 18.89° C | 37% | 1014.4 hPa | 0 mm | - | 514 W/m² | - |
| 1777751717 | 18.89° C | 37% | 1014.6 hPa | 0 mm | - | 884 W/m² | - |
| 1777749318 | 18.89° C | 40% | 1014.6 hPa | 0 mm | - | 885 W/m² | - |
| 1777747518 | 18.33° C | 42% | 1015 hPa | 0 mm | - | 545 W/m² | - |
| 1777746916 | 18.33° C | 40% | 1015.1 hPa | 0 mm | - | 565 W/m² | - |
| 1777745716 | 18.89° C | 40% | 1015 hPa | 0 mm | - | 1058 W/m² | - |
| 1777743317 | 18.33° C | 39% | 1015 hPa | 0 mm | - | 666 W/m² | - |
| 1777740317 | 17.22° C | 45% | 1015.6 hPa | 0 mm | - | 755 W/m² | - |
| 1777739118 | 16.67° C | 46% | 1015.9 hPa | 0 mm | - | 355 W/m² | - |
| 1777736739 | 15.56° C | 48% | 1015.7 hPa | 0 mm | - | 301 W/m² | - |
| 1777734319 | 15.56° C | 49% | 1015.5 hPa | 0 mm | - | 226 W/m² | - |
| 1777725918 | 12.22° C | 60% | 1015.1 hPa | 0 mm | - | 55 W/m² | - |
| 1777724736 | 11.11° C | 66% | 1014.9 hPa | 0 mm | - | 76 W/m² | - |
| 1777722916 | 11.11° C | 63% | 1014.8 hPa | 0 mm | - | 42 W/m² | - |
| 1777721137 | 11.11° C | 59% | 1014.6 hPa | 0 mm | - | 11 W/m² | - |
| 1777719918 | 11.67° C | 60% | 1014.4 hPa | 0 mm | - | 5 W/m² | - |
* Rain latest hour (hover to see other rain measurements)
** Current wind speed in m/s (hover to see current wind gust speed)